** WELKOM OP ONZE WEBSITE MET ACTUELE WEERDATA VANUIT IZEGEM **
Het weer levert geen direct gevaar op.    Er zijn geen waarschuwingen afgegeven.

Weercam te Izegem Meer informatie Weercam te Izegem


Lokaal brand risico:
FWI


Regionaal brand risico: Meer informatie


Steun ons initiatief via een kleine donatie!



METAR rapporten vliegvelden

   
EBOS - Oostende Airport, Belgium
Afstand tot: NW 39 km
Gewijzigd: 25-04-2019 09:50
Grotendeels bewolkt  
Grotendeels bewolkt  
   Wind: ZZO 25.9 km/h
Wind: ZZO 25.9 km/h
Temperatuur: 12°C
Dauwpunt: 9°C
Vochtigheid: 82%
Barometer: 1001 hPa
Bewolking: Mostly Cloudy
Zicht: meer dan 10 km
Bewolking: Licht bewolkt 1600 ft,
Grotendeels bewolkt 3600 ft
EBOS 250750Z 16014KT 9999 FEW016 BKN036 12/09 Q1001 NOSIG
LFQQ - Lille/Lesquin, France
Afstand tot: Z 40 km
Gewijzigd: 25-04-2019 09:30
Helder  
Helder  
   Wind: ZO 22.2 km/h
Wind: ZO 22.2 km/h
Temperatuur: 12°C
Dauwpunt: 9°C
Vochtigheid: 82%
Barometer: 1001 hPa
Zicht: meer dan 10 km
Bewolking: Helder ft
LFQQ 250730Z AUTO 14012KT CAVOK 12/09 Q1001 TEMPO 16015G25KT
EBFN - Koksijde (bel-Af, Belgium
Afstand tot: WNW 43 km
Gewijzigd: 25-04-2019 09:25
Wat regen mogelijk, Grotendeels bewolkt  
Wat regen mogelijk, Grotendeels bewolkt  
   Wind: ZZO 27.8 km/h
Wind: ZZO 27.8 km/h
Temperatuur: 12°C
Dauwpunt: 8°C
Vochtigheid: 77%
Barometer: 1001 hPa
Bewolking: Mostly Cloudy
Zicht: meer dan 10 km
Bewolking: Gedeeltelijk bewolkt 4500 ft,
Grotendeels bewolkt 6000 ft
EBFN 250725Z 16015KT 9999 -RA SCT045 BKN060 12/08 Q1001 BLU BLU
EBCV - Chievres Ab, Belgium
Afstand tot: ZO 59 km
Gewijzigd: 25-04-2019 09:25
Grotendeels bewolkt  
Grotendeels bewolkt  
   Wind: ZZO 27.8 km/h
Wind: ZZO 27.8 km/h
Temperatuur: 13°C
Dauwpunt: 8°C
Vochtigheid: 72%
Barometer: 1002 hPa
Bewolking: Mostly Cloudy
Zicht: meer dan 10 km
Bewolking: Licht bewolkt 4400 ft,
Gedeeltelijk bewolkt 6600 ft,
Grotendeels bewolkt 7600 ft
EBCV 250725Z AUTO 16015KT 9999 FEW044/// SCT066/// BKN076/// 13/08 Q1002 BLU
EHFS - Vlissingen, Netherlands
Afstand tot: NNO 65 km
Gewijzigd: 25-04-2019 09:25
Gedeeltelijk bewolkt  
Gedeeltelijk bewolkt  
   Wind: Zuiden 37 km/h
Wind: Zuiden 37 km/h
Temperatuur: 12°C
Dauwpunt: 9°C
Vochtigheid: 82%
Barometer: 1002 hPa
Bewolking: Partly Cloudy
Zicht: meer dan 10 km
Bewolking: Gedeeltelijk bewolkt ft
EHFS 250725Z AUTO 17020KT 9999 NSC 12/09 Q1002 W///H///
EBBR - Brussels Nationa, Belgium
Afstand tot: O 91 km
Gewijzigd: 25-04-2019 09:50
Helder  
Helder  
   Wind: ZZO 18.5 km/h
Wind: ZZO 18.5 km/h
Temperatuur: 12°C
Dauwpunt: 7°C
Vochtigheid: 72%
Barometer: 1004 hPa
Zicht: meer dan 10 km
Bewolking: Helder ft
EBBR 250750Z 15010KT CAVOK 12/07 Q1004 NOSIG
EBAW - Antwerp/Deurne, Belgium
Afstand tot: ONO 94 km
Gewijzigd: 25-04-2019 09:50
Helder  
Helder  
   Wind: ZO 16.7 km/h
Wind: ZO 16.7 km/h
Temperatuur: 12°C
Dauwpunt: 7°C
Vochtigheid: 72%
Barometer: 1004 hPa
Zicht: meer dan 10 km
Bewolking: Helder ft
EBAW 250750Z 14009KT CAVOK 12/07 Q1004 NOSIG
EHWO - Woensdrecht Rnla, Netherlands
Afstand tot: NO 98 km
Gewijzigd: 25-04-2019 09:55
Wat regen mogelijk, Bewolking  
Wat regen mogelijk, Bewolking  
   Wind: ZO 11.1 km/h
Wind: ZO 11.1 km/h
Temperatuur: 12°C
Dauwpunt: 8°C
Vochtigheid: 77%
Barometer: 1003 hPa
Bewolking: Overcast
Zicht: meer dan 10 km
Bewolking: Licht bewolkt 4000 ft,
Grotendeels bewolkt 7700 ft,
Bewolking 8400 ft
EHWO 250755Z AUTO 14006KT 110V190 9999 -RA FEW040 BKN077 OVC084 12/08 Q1003 BLU 14008KT CAVOK BEC
EBCI - Charleroi/Gossel, Belgium
Afstand tot: OZO 102 km
Gewijzigd: 25-04-2019 09:50
Grotendeels bewolkt  
Grotendeels bewolkt  
   Wind: ZZO 18.5 km/h
Wind: ZZO 18.5 km/h
Temperatuur: 12°C
Dauwpunt: 7°C
Vochtigheid: 72%
Barometer: 1003 hPa
Bewolking: Mostly Cloudy
Zicht: meer dan 10 km
Bewolking: Licht bewolkt 3500 ft,
Grotendeels bewolkt 4500 ft
EBCI 250750Z 15010KT 9999 FEW035 BKN045 12/07 Q1003 NOSIG

Script ontwikkeld door  Saratoga-weather.org Aangepast voor de template door  Weerstation Leuven